EST,Max TemperatureF,Mean TemperatureF,Min TemperatureF,Max Dew PointF,MeanDew PointF,Min DewpointF,Max Humidity, Mean Humidity, Min Humidity, Max Sea Level PressureIn, Mean Sea Level PressureIn, Min Sea Level PressureIn, Max VisibilityMiles, Mean VisibilityMiles, Min VisibilityMiles, Max Wind SpeedMPH, Mean Wind SpeedMPH, Max Gust SpeedMPH,PrecipitationIn, CloudCover, Events, WindDirDegrees
2012-11-1,39,37,35,37,35,32,93,90,87,29.66,29.57,29.50,10,6,3,16,12,23,0.28,8,,268
2012-11-2,37,35,33,34,31,28,93,85,70,29.90,29.75,29.64,10,8,1,17,10,23,0.11,8,,297
2012-11-3,35,34,33,30,28,27,87,78,70,30.06,29.99,29.90,10,10,3,14,9,20,0.00,8,,321
2012-11-4,33,32,30,28,26,21,93,79,60,30.07,30.06,30.05,10,10,4,12,6,16,0.00,8,,339
2012-11-5,32,31,28,27,24,19,86,76,64,30.14,30.10,30.04,10,10,8,8,4,,0.00,8,,356
2012-11-6,37,32,28,21,19,18,69,61,48,30.13,30.06,29.97,10,10,10,12,4,,0.00,4,,126
2012-11-7,37,32,26,21,19,16,74,62,44,30.04,30.00,29.95,10,10,10,12,6,,0.00,0,,54
2012-11-8,39,32,26,28,24,21,87,73,49,30.11,30.07,30.03,10,10,10,13,8,18,0.00,2,,329
2012-11-9,44,37,30,34,32,27,93,77,57,30.18,30.14,30.09,10,8,5,14,6,,0.00,6,,248
2012-11-10,55,46,37,45,38,32,93,77,47,30.25,30.20,30.15,10,7,0,10,6,,0.35,7,,176
2012-11-11,66,57,48,37,35,34,58,42,30,30.32,30.24,30.18,10,10,10,18,11,25,0.00,1,,180
2012-11-12,66,50,33,46,40,30,93,62,44,30.23,30.11,29.93,10,9,2,23,13,36,0.37,4,,203
2012-11-13,33,30,28,30,25,21,87,80,69,30.48,30.36,30.22,10,9,4,15,10,21,0.00,8,,252
2012-11-14,37,32,28,25,21,18,80,66,48,30.55,30.48,30.40,10,10,10,10,4,,0.00,4,,71
2012-11-15,44,35,26,27,23,19,80,65,39,30.39,30.32,30.28,10,10,10,10,4,,0.00,0,,66
2012-11-16,46,37,28,30,28,23,93,75,46,30.47,30.38,30.29,10,9,0,12,4,,0.00,0,,349
2012-11-17,48,38,28,34,30,25,93,80,50,30.60,30.55,30.48,10,6,0,8,1,,0.00,1,,36
2012-11-18,51,40,30,30,28,25,93,63,41,30.56,30.51,30.45,10,10,5,9,4,,0.00,0,,139
2012-11-19,46,38,30,34,29,25,93,71,53,30.44,30.34,30.21,10,9,2,9,4,,0.00,0,,172
2012-11-20,48,39,30,36,31,28,93,74,53,30.20,30.14,30.09,10,10,8,7,3,,0.00,1,,262
2012-11-21,53,42,30,36,30,18,100,70,26,30.22,30.18,30.13,10,8,0,8,1,,0.00,1,,292
2012-11-22,55,44,33,36,29,21,81,57,41,30.20,30.13,29.99,10,10,10,12,5,,0.00,0,,189
2012-11-23,46,37,28,41,30,21,93,68,49,29.98,29.80,29.70,10,9,2,26,13,37,0.00,5,,226
2012-11-24,30,29,28,25,20,18,86,69,60,29.93,29.86,29.79,10,8,1,24,15,31,0.03,8,,291
2012-11-25,32,28,24,27,20,18,86,73,64,29.91,29.85,29.79,10,8,1,15,10,21,0.00,8,,233
2012-11-26,33,30,28,25,22,19,75,70,60,30.18,30.07,29.89,10,10,10,15,9,23,0.00,8,,275
2012-11-27,30,29,28,25,21,19,86,73,69,30.24,30.21,30.17,10,10,6,6,2,,0.00,8,,305
2012-11-28,30,28,26,25,21,18,86,74,64,30.24,30.19,30.16,10,9,4,20,9,23,0.00,8,,231
2012-11-29,39,32,24,25,20,18,86,63,42,30.28,30.24,30.21,10,9,5,15,9,18,0.00,1,,229
2012-11-30,37,32,28,25,22,18,69,63,56,30.28,30.24,30.18,10,10,10,9,5,,0.00,5,,127